Terminal Aerodrome Forecast
Issued by NWS

Home | Current Version | Previous Version | Text Only | Print | Product List | Glossary Off
Versions: 1 2 3 4 5 6 7 8 9 10 11 12 13 14 15

000
FTUS43 KOAX 290500
TAFCDR
TAF
KCDR 290530Z 2906/3006 08010KT P6SM SCT080
     FM291000 15008KT 4SM BR SCT025
     FM291500 13010KT P6SM OVC060
     FM291900 05010G20KT P6SM -SHRA OVC050=

USA.gov is the U.S. government's official web portal to all federal, state and local government web resources and services.